sensor_id;sensor_type;location;lat;lon;timestamp;P1;durP1;ratioP1;P2;durP2;ratioP2
77705;SDS011;66874;45.274;5.880;2023-02-28T00:01:36;12.27;;;6.55;;
77705;SDS011;66874;45.274;5.880;2023-02-28T00:04:01;13.50;;;6.90;;
77705;SDS011;66874;45.274;5.880;2023-02-28T00:06:27;9.80;;;6.63;;
77705;SDS011;66874;45.274;5.880;2023-02-28T00:08:52;10.98;;;6.80;;
77705;SDS011;66874;45.274;5.880;2023-02-28T00:11:18;12.23;;;7.03;;
77705;SDS011;66874;45.274;5.880;2023-02-28T00:13:44;14.00;;;7.18;;
77705;SDS011;66874;45.274;5.880;2023-02-28T00:16:12;11.02;;;7.05;;
77705;SDS011;66874;45.274;5.880;2023-02-28T00:18:46;14.68;;;6.45;;
77705;SDS011;66874;45.274;5.880;2023-02-28T00:21:12;14.18;;;7.35;;
77705;SDS011;66874;45.274;5.880;2023-02-28T00:23:38;9.32;;;6.40;;
77705;SDS011;66874;45.274;5.880;2023-02-28T00:26:04;14.80;;;7.40;;
77705;SDS011;66874;45.274;5.880;2023-02-28T00:28:29;17.55;;;7.90;;
77705;SDS011;66874;45.274;5.880;2023-02-28T03:00:32;11.68;;;7.95;;
77705;SDS011;66874;45.274;5.880;2023-02-28T03:03:02;14.63;;;8.00;;
77705;SDS011;66874;45.274;5.880;2023-02-28T03:05:36;19.55;;;9.43;;
77705;SDS011;66874;45.274;5.880;2023-02-28T03:08:09;18.50;;;9.05;;
77705;SDS011;66874;45.274;5.880;2023-02-28T03:10:45;13.85;;;8.00;;
77705;SDS011;66874;45.274;5.880;2023-02-28T03:18:48;15.20;;;7.95;;
77705;SDS011;66874;45.274;5.880;2023-02-28T03:21:23;13.20;;;8.17;;
77705;SDS011;66874;45.274;5.880;2023-02-28T03:26:48;17.48;;;8.80;;
77705;SDS011;66874;45.274;5.880;2023-02-28T03:29:22;14.60;;;7.78;;
77705;SDS011;66874;45.274;5.880;2023-02-28T06:32:55;20.53;;;9.87;;
77705;SDS011;66874;45.274;5.880;2023-02-28T06:35:20;22.93;;;10.53;;
77705;SDS011;66874;45.274;5.880;2023-02-28T06:37:46;37.13;;;11.97;;
77705;SDS011;66874;45.274;5.880;2023-02-28T06:40:12;20.97;;;11.73;;
77705;SDS011;66874;45.274;5.880;2023-02-28T06:42:38;22.83;;;11.27;;
77705;SDS011;66874;45.274;5.880;2023-02-28T06:45:03;21.90;;;10.30;;
77705;SDS011;66874;45.274;5.880;2023-02-28T06:47:34;24.23;;;12.73;;
77705;SDS011;66874;45.274;5.880;2023-02-28T06:50:00;26.67;;;13.23;;
77705;SDS011;66874;45.274;5.880;2023-02-28T06:52:26;24.00;;;11.00;;
77705;SDS011;66874;45.274;5.880;2023-02-28T06:54:52;23.95;;;11.63;;
77705;SDS011;66874;45.274;5.880;2023-02-28T06:57:25;23.27;;;11.20;;
77705;SDS011;66874;45.274;5.880;2023-02-28T06:59:55;21.80;;;11.10;;
77705;SDS011;66874;45.274;5.880;2023-02-28T07:02:21;19.73;;;9.57;;
77705;SDS011;66874;45.274;5.880;2023-02-28T07:04:46;25.50;;;13.53;;
77705;SDS011;66874;45.274;5.880;2023-02-28T07:07:11;20.57;;;10.13;;
77705;SDS011;66874;45.274;5.880;2023-02-28T07:09:37;20.73;;;11.20;;
77705;SDS011;66874;45.274;5.880;2023-02-28T07:12:02;22.27;;;10.98;;
77705;SDS011;66874;45.274;5.880;2023-02-28T07:14:28;19.87;;;11.13;;
77705;SDS011;66874;45.274;5.880;2023-02-28T07:16:53;22.07;;;11.20;;
77705;SDS011;66874;45.274;5.880;2023-02-28T07:19:18;20.17;;;10.50;;
77705;SDS011;66874;45.274;5.880;2023-02-28T07:21:44;26.07;;;13.17;;
77705;SDS011;66874;45.274;5.880;2023-02-28T07:24:10;23.33;;;12.02;;
77705;SDS011;66874;45.274;5.880;2023-02-28T07:26:35;25.25;;;12.40;;
77705;SDS011;66874;45.274;5.880;2023-02-28T07:29:01;28.08;;;11.68;;
77705;SDS011;66874;45.274;5.880;2023-02-28T07:31:27;24.35;;;11.85;;
77705;SDS011;66874;45.274;5.880;2023-02-28T07:33:52;19.47;;;10.90;;
77705;SDS011;66874;45.274;5.880;2023-02-28T07:36:19;18.20;;;10.25;;
77705;SDS011;66874;45.274;5.880;2023-02-28T07:38:45;19.20;;;11.25;;
77705;SDS011;66874;45.274;5.880;2023-02-28T07:41:18;18.55;;;10.25;;
77705;SDS011;66874;45.274;5.880;2023-02-28T07:43:45;20.50;;;10.98;;
77705;SDS011;66874;45.274;5.880;2023-02-28T07:46:13;20.17;;;10.18;;
77705;SDS011;66874;45.274;5.880;2023-02-28T07:48:40;23.02;;;11.30;;
77705;SDS011;66874;45.274;5.880;2023-02-28T07:51:06;24.48;;;11.77;;
77705;SDS011;66874;45.274;5.880;2023-02-28T07:53:31;18.48;;;9.75;;
77705;SDS011;66874;45.274;5.880;2023-02-28T07:58:23;23.67;;;10.45;;
77705;SDS011;66874;45.274;5.880;2023-02-28T08:00:49;22.05;;;9.55;;
77705;SDS011;66874;45.274;5.880;2023-02-28T08:03:15;13.23;;;8.82;;
77705;SDS011;66874;45.274;5.880;2023-02-28T08:05:41;13.90;;;9.47;;
77705;SDS011;66874;45.274;5.880;2023-02-28T08:08:07;25.30;;;12.60;;
77705;SDS011;66874;45.274;5.880;2023-02-28T08:10:33;34.38;;;17.00;;
77705;SDS011;66874;45.274;5.880;2023-02-28T08:12:59;21.50;;;11.05;;
77705;SDS011;66874;45.274;5.880;2023-02-28T08:15:25;25.88;;;12.65;;
77705;SDS011;66874;45.274;5.880;2023-02-28T08:17:50;33.17;;;20.73;;
77705;SDS011;66874;45.274;5.880;2023-02-28T08:20:16;20.63;;;10.98;;
77705;SDS011;66874;45.274;5.880;2023-02-28T08:22:41;22.98;;;12.15;;
77705;SDS011;66874;45.274;5.880;2023-02-28T08:25:07;22.67;;;14.02;;
77705;SDS011;66874;45.274;5.880;2023-02-28T08:27:33;20.27;;;11.68;;
77705;SDS011;66874;45.274;5.880;2023-02-28T08:29:58;16.63;;;9.05;;
77705;SDS011;66874;45.274;5.880;2023-02-28T08:32:24;15.40;;;9.70;;
77705;SDS011;66874;45.274;5.880;2023-02-28T08:34:49;18.13;;;9.15;;
77705;SDS011;66874;45.274;5.880;2023-02-28T08:37:15;17.13;;;9.57;;
77705;SDS011;66874;45.274;5.880;2023-02-28T08:39:40;15.73;;;9.38;;
77705;SDS011;66874;45.274;5.880;2023-02-28T08:42:06;25.20;;;11.23;;
77705;SDS011;66874;45.274;5.880;2023-02-28T08:44:31;16.33;;;9.90;;
77705;SDS011;66874;45.274;5.880;2023-02-28T08:46:57;19.52;;;11.20;;
77705;SDS011;66874;45.274;5.880;2023-02-28T08:49:22;16.27;;;9.85;;
77705;SDS011;66874;45.274;5.880;2023-02-28T08:51:48;18.77;;;10.23;;
77705;SDS011;66874;45.274;5.880;2023-02-28T08:54:13;16.52;;;9.85;;
77705;SDS011;66874;45.274;5.880;2023-02-28T08:56:41;15.20;;;9.48;;
77705;SDS011;66874;45.274;5.880;2023-02-28T08:59:08;13.38;;;9.10;;
77705;SDS011;66874;45.274;5.880;2023-02-28T09:04:01;17.45;;;9.70;;
77705;SDS011;66874;45.274;5.880;2023-02-28T09:06:27;15.40;;;9.32;;
77705;SDS011;66874;45.274;5.880;2023-02-28T09:08:53;13.77;;;8.43;;
77705;SDS011;66874;45.274;5.880;2023-02-28T09:11:23;18.98;;;10.68;;
77705;SDS011;66874;45.274;5.880;2023-02-28T09:13:48;16.52;;;9.15;;
77705;SDS011;66874;45.274;5.880;2023-02-28T09:16:14;19.75;;;10.40;;
77705;SDS011;66874;45.274;5.880;2023-02-28T09:18:41;18.40;;;9.63;;
77705;SDS011;66874;45.274;5.880;2023-02-28T09:21:07;16.17;;;9.43;;
77705;SDS011;66874;45.274;5.880;2023-02-28T09:23:34;16.08;;;9.00;;
77705;SDS011;66874;45.274;5.880;2023-02-28T09:26:00;16.70;;;9.63;;
77705;SDS011;66874;45.274;5.880;2023-02-28T09:28:25;19.00;;;10.60;;
77705;SDS011;66874;45.274;5.880;2023-02-28T09:30:52;16.40;;;9.90;;
77705;SDS011;66874;45.274;5.880;2023-02-28T09:33:19;13.80;;;9.18;;
77705;SDS011;66874;45.274;5.880;2023-02-28T09:35:46;19.85;;;9.40;;
77705;SDS011;66874;45.274;5.880;2023-02-28T09:38:15;16.58;;;9.85;;
77705;SDS011;66874;45.274;5.880;2023-02-28T09:43:34;21.65;;;9.55;;
77705;SDS011;66874;45.274;5.880;2023-02-28T09:48:40;15.60;;;10.10;;
77705;SDS011;66874;45.274;5.880;2023-02-28T09:51:15;16.48;;;10.20;;
77705;SDS011;66874;45.274;5.880;2023-02-28T09:53:47;16.02;;;9.57;;
77705;SDS011;66874;45.274;5.880;2023-02-28T09:56:15;17.60;;;10.65;;
77705;SDS011;66874;45.274;5.880;2023-02-28T10:04:00;18.33;;;10.25;;
77705;SDS011;66874;45.274;5.880;2023-02-28T10:06:50;24.08;;;10.40;;
77705;SDS011;66874;45.274;5.880;2023-02-28T10:09:22;23.23;;;10.55;;
77705;SDS011;66874;45.274;5.880;2023-02-28T10:11:52;19.50;;;10.90;;
77705;SDS011;66874;45.274;5.880;2023-02-28T10:14:19;18.98;;;11.07;;
77705;SDS011;66874;45.274;5.880;2023-02-28T10:16:55;19.85;;;10.77;;
77705;SDS011;66874;45.274;5.880;2023-02-28T10:19:41;18.52;;;10.70;;
77705;SDS011;66874;45.274;5.880;2023-02-28T10:25:23;15.93;;;10.18;;
77705;SDS011;66874;45.274;5.880;2023-02-28T10:28:33;18.45;;;10.60;;
77705;SDS011;66874;45.274;5.880;2023-02-28T10:30:45;14.25;;;9.15;;
77705;SDS011;66874;45.274;5.880;2023-02-28T10:33:24;23.25;;;10.15;;
77705;SDS011;66874;45.274;5.880;2023-02-28T10:35:59;17.15;;;10.00;;
77705;SDS011;66874;45.274;5.880;2023-02-28T10:38:47;21.35;;;10.55;;
77705;SDS011;66874;45.274;5.880;2023-02-28T10:41:13;18.03;;;9.80;;
77705;SDS011;66874;45.274;5.880;2023-02-28T10:43:40;17.73;;;10.65;;
77705;SDS011;66874;45.274;5.880;2023-02-28T10:48:34;19.48;;;10.80;;
77705;SDS011;66874;45.274;5.880;2023-02-28T10:51:02;18.25;;;10.27;;
77705;SDS011;66874;45.274;5.880;2023-02-28T10:56:01;25.52;;;11.98;;
77705;SDS011;66874;45.274;5.880;2023-02-28T10:58:29;20.58;;;10.82;;
77705;SDS011;66874;45.274;5.880;2023-02-28T11:00:57;19.45;;;11.48;;
77705;SDS011;66874;45.274;5.880;2023-02-28T11:03:25;17.63;;;10.80;;
77705;SDS011;66874;45.274;5.880;2023-02-28T11:05:58;17.98;;;11.02;;
77705;SDS011;66874;45.274;5.880;2023-02-28T11:08:29;18.17;;;10.38;;
77705;SDS011;66874;45.274;5.880;2023-02-28T11:10:57;19.83;;;10.23;;
77705;SDS011;66874;45.274;5.880;2023-02-28T11:13:31;20.67;;;11.25;;
77705;SDS011;66874;45.274;5.880;2023-02-28T11:15:59;20.17;;;11.07;;
77705;SDS011;66874;45.274;5.880;2023-02-28T11:18:40;14.65;;;9.98;;
77705;SDS011;66874;45.274;5.880;2023-02-28T11:21:11;21.55;;;11.40;;
77705;SDS011;66874;45.274;5.880;2023-02-28T11:23:46;19.33;;;10.82;;
77705;SDS011;66874;45.274;5.880;2023-02-28T11:26:14;18.55;;;11.13;;
77705;SDS011;66874;45.274;5.880;2023-02-28T11:28:41;27.00;;;11.40;;
77705;SDS011;66874;45.274;5.880;2023-02-28T11:38:56;24.10;;;12.40;;
77705;SDS011;66874;45.274;5.880;2023-02-28T11:52:37;19.13;;;11.43;;
77705;SDS011;66874;45.274;5.880;2023-02-28T12:18:49;19.75;;;10.82;;
77705;SDS011;66874;45.274;5.880;2023-02-28T12:24:22;19.67;;;11.35;;
77705;SDS011;66874;45.274;5.880;2023-02-28T12:27:03;20.05;;;11.10;;
77705;SDS011;66874;45.274;5.880;2023-02-28T12:29:43;21.70;;;12.25;;
77705;SDS011;66874;45.274;5.880;2023-02-28T12:32:16;18.77;;;11.93;;
77705;SDS011;66874;45.274;5.880;2023-02-28T12:35:04;19.15;;;12.15;;
77705;SDS011;66874;45.274;5.880;2023-02-28T12:37:50;18.48;;;11.30;;
77705;SDS011;66874;45.274;5.880;2023-02-28T12:40:21;22.67;;;10.88;;
77705;SDS011;66874;45.274;5.880;2023-02-28T12:43:08;18.25;;;11.38;;
77705;SDS011;66874;45.274;5.880;2023-02-28T12:45:45;19.65;;;11.13;;
77705;SDS011;66874;45.274;5.880;2023-02-28T12:48:29;21.48;;;11.02;;
77705;SDS011;66874;45.274;5.880;2023-02-28T12:51:02;21.45;;;11.77;;
77705;SDS011;66874;45.274;5.880;2023-02-28T13:07:10;16.23;;;11.88;;
77705;SDS011;66874;45.274;5.880;2023-02-28T13:09:39;17.30;;;10.90;;
77705;SDS011;66874;45.274;5.880;2023-02-28T13:12:14;20.27;;;10.40;;
77705;SDS011;66874;45.274;5.880;2023-02-28T13:14:41;23.15;;;11.50;;
77705;SDS011;66874;45.274;5.880;2023-02-28T13:19:40;20.98;;;11.07;;
77705;SDS011;66874;45.274;5.880;2023-02-28T13:22:19;20.85;;;11.77;;
77705;SDS011;66874;45.274;5.880;2023-02-28T13:24:54;16.85;;;11.27;;
77705;SDS011;66874;45.274;5.880;2023-02-28T13:27:24;18.45;;;12.10;;
77705;SDS011;66874;45.274;5.880;2023-02-28T13:29:57;16.23;;;11.02;;
77705;SDS011;66874;45.274;5.880;2023-02-28T14:08:58;16.63;;;11.30;;
77705;SDS011;66874;45.274;5.880;2023-02-28T14:11:32;18.70;;;10.77;;
77705;SDS011;66874;45.274;5.880;2023-02-28T14:14:06;17.00;;;10.73;;
77705;SDS011;66874;45.274;5.880;2023-02-28T14:16:37;17.02;;;10.93;;
77705;SDS011;66874;45.274;5.880;2023-02-28T14:19:11;17.75;;;10.45;;
77705;SDS011;66874;45.274;5.880;2023-02-28T14:27:11;17.67;;;11.30;;
77705;SDS011;66874;45.274;5.880;2023-02-28T14:32:17;15.30;;;10.20;;
77705;SDS011;66874;45.274;5.880;2023-02-28T14:35:18;16.80;;;11.02;;
77705;SDS011;66874;45.274;5.880;2023-02-28T14:38:05;16.20;;;11.27;;
77705;SDS011;66874;45.274;5.880;2023-02-28T14:40:38;15.32;;;10.13;;
77705;SDS011;66874;45.274;5.880;2023-02-28T14:43:05;16.95;;;11.05;;
77705;SDS011;66874;45.274;5.880;2023-02-28T14:45:43;13.82;;;9.65;;
77705;SDS011;66874;45.274;5.880;2023-02-28T14:48:14;14.77;;;10.65;;
77705;SDS011;66874;45.274;5.880;2023-02-28T14:50:41;21.27;;;12.10;;
77705;SDS011;66874;45.274;5.880;2023-02-28T14:53:15;20.20;;;10.20;;
77705;SDS011;66874;45.274;5.880;2023-02-28T14:55:45;18.45;;;11.00;;
77705;SDS011;66874;45.274;5.880;2023-02-28T15:00:49;16.02;;;10.85;;
77705;SDS011;66874;45.274;5.880;2023-02-28T15:03:33;18.20;;;10.90;;
77705;SDS011;66874;45.274;5.880;2023-02-28T15:06:02;15.20;;;10.13;;
77705;SDS011;66874;45.274;5.880;2023-02-28T15:08:37;18.13;;;11.50;;
77705;SDS011;66874;45.274;5.880;2023-02-28T15:11:07;17.20;;;10.68;;
77705;SDS011;66874;45.274;5.880;2023-02-28T15:13:44;17.52;;;10.23;;
77705;SDS011;66874;45.274;5.880;2023-02-28T15:16:13;22.08;;;11.63;;
77705;SDS011;66874;45.274;5.880;2023-02-28T15:18:46;22.52;;;11.73;;
77705;SDS011;66874;45.274;5.880;2023-02-28T15:21:19;18.95;;;11.77;;
77705;SDS011;66874;45.274;5.880;2023-02-28T15:23:57;22.30;;;13.43;;
77705;SDS011;66874;45.274;5.880;2023-02-28T15:26:33;24.08;;;12.27;;
77705;SDS011;66874;45.274;5.880;2023-02-28T15:29:05;19.42;;;11.20;;
77705;SDS011;66874;45.274;5.880;2023-02-28T15:31:40;20.33;;;11.15;;
77705;SDS011;66874;45.274;5.880;2023-02-28T15:34:19;21.80;;;10.65;;
77705;SDS011;66874;45.274;5.880;2023-02-28T15:36:47;21.45;;;11.77;;
77705;SDS011;66874;45.274;5.880;2023-02-28T15:39:20;17.92;;;11.45;;
77705;SDS011;66874;45.274;5.880;2023-02-28T15:41:47;19.00;;;11.35;;
77705;SDS011;66874;45.274;5.880;2023-02-28T15:46:53;20.25;;;11.10;;
77705;SDS011;66874;45.274;5.880;2023-02-28T15:49:22;17.02;;;9.60;;
77705;SDS011;66874;45.274;5.880;2023-02-28T15:51:49;20.55;;;11.63;;
77705;SDS011;66874;45.274;5.880;2023-02-28T15:54:21;19.75;;;11.27;;
77705;SDS011;66874;45.274;5.880;2023-02-28T15:56:52;26.25;;;11.15;;
77705;SDS011;66874;45.274;5.880;2023-02-28T15:59:27;19.83;;;11.18;;
77705;SDS011;66874;45.274;5.880;2023-02-28T16:04:35;19.25;;;11.13;;
77705;SDS011;66874;45.274;5.880;2023-02-28T16:07:02;18.08;;;11.45;;
77705;SDS011;66874;45.274;5.880;2023-02-28T16:09:31;17.60;;;10.77;;
77705;SDS011;66874;45.274;5.880;2023-02-28T16:12:00;19.67;;;11.05;;
77705;SDS011;66874;45.274;5.880;2023-02-28T16:14:28;21.48;;;12.57;;
77705;SDS011;66874;45.274;5.880;2023-02-28T16:17:05;22.67;;;10.95;;
77705;SDS011;66874;45.274;5.880;2023-02-28T16:19:33;24.92;;;12.20;;
77705;SDS011;66874;45.274;5.880;2023-02-28T16:21:59;16.88;;;10.77;;
77705;SDS011;66874;45.274;5.880;2023-02-28T16:24:25;19.30;;;10.15;;
77705;SDS011;66874;45.274;5.880;2023-02-28T16:26:50;21.40;;;10.95;;
77705;SDS011;66874;45.274;5.880;2023-02-28T16:29:20;21.98;;;10.43;;
77705;SDS011;66874;45.274;5.880;2023-02-28T16:31:52;17.58;;;11.15;;
77705;SDS011;66874;45.274;5.880;2023-02-28T16:34:18;22.48;;;11.23;;
77705;SDS011;66874;45.274;5.880;2023-02-28T16:36:46;16.75;;;10.48;;
77705;SDS011;66874;45.274;5.880;2023-02-28T16:39:11;20.35;;;10.95;;
77705;SDS011;66874;45.274;5.880;2023-02-28T16:41:37;17.40;;;9.95;;
77705;SDS011;66874;45.274;5.880;2023-02-28T16:44:02;25.85;;;9.88;;
77705;SDS011;66874;45.274;5.880;2023-02-28T16:46:35;18.73;;;10.60;;
77705;SDS011;66874;45.274;5.880;2023-02-28T16:49:01;19.95;;;10.77;;
77705;SDS011;66874;45.274;5.880;2023-02-28T16:51:26;25.20;;;12.07;;
77705;SDS011;66874;45.274;5.880;2023-02-28T16:53:52;21.70;;;11.57;;
77705;SDS011;66874;45.274;5.880;2023-02-28T16:56:21;17.63;;;10.40;;
77705;SDS011;66874;45.274;5.880;2023-02-28T16:58:48;21.38;;;11.57;;
77705;SDS011;66874;45.274;5.880;2023-02-28T17:01:15;20.50;;;11.55;;
77705;SDS011;66874;45.274;5.880;2023-02-28T17:03:42;22.15;;;11.27;;
77705;SDS011;66874;45.274;5.880;2023-02-28T17:06:21;17.58;;;10.75;;
77705;SDS011;66874;45.274;5.880;2023-02-28T17:08:49;21.17;;;10.57;;
77705;SDS011;66874;45.274;5.880;2023-02-28T17:11:15;20.15;;;11.77;;
77705;SDS011;66874;45.274;5.880;2023-02-28T17:13:41;18.63;;;10.68;;
77705;SDS011;66874;45.274;5.880;2023-02-28T17:16:29;17.52;;;10.40;;
77705;SDS011;66874;45.274;5.880;2023-02-28T17:18:54;18.50;;;10.48;;
77705;SDS011;66874;45.274;5.880;2023-02-28T17:21:23;19.15;;;10.57;;
77705;SDS011;66874;45.274;5.880;2023-02-28T17:23:48;19.25;;;10.93;;
77705;SDS011;66874;45.274;5.880;2023-02-28T17:26:14;21.55;;;11.43;;
77705;SDS011;66874;45.274;5.880;2023-02-28T17:28:44;22.75;;;11.90;;
77705;SDS011;66874;45.274;5.880;2023-02-28T17:31:10;23.50;;;11.52;;
77705;SDS011;66874;45.274;5.880;2023-02-28T17:33:36;23.27;;;12.05;;
77705;SDS011;66874;45.274;5.880;2023-02-28T17:36:01;19.73;;;11.77;;
77705;SDS011;66874;45.274;5.880;2023-02-28T17:38:27;25.60;;;12.73;;
77705;SDS011;66874;45.274;5.880;2023-02-28T17:40:52;23.23;;;12.55;;
77705;SDS011;66874;45.274;5.880;2023-02-28T17:43:22;22.42;;;12.65;;
77705;SDS011;66874;45.274;5.880;2023-02-28T17:45:48;21.00;;;12.23;;
77705;SDS011;66874;45.274;5.880;2023-02-28T17:48:15;25.08;;;12.52;;
77705;SDS011;66874;45.274;5.880;2023-02-28T17:50:40;22.13;;;11.63;;
77705;SDS011;66874;45.274;5.880;2023-02-28T17:53:05;23.77;;;12.68;;
77705;SDS011;66874;45.274;5.880;2023-02-28T17:55:31;18.92;;;10.52;;
77705;SDS011;66874;45.274;5.880;2023-02-28T17:57:58;23.42;;;12.05;;
77705;SDS011;66874;45.274;5.880;2023-02-28T18:00:24;20.38;;;12.18;;
77705;SDS011;66874;45.274;5.880;2023-02-28T18:02:49;21.63;;;11.52;;
77705;SDS011;66874;45.274;5.880;2023-02-28T18:05:14;25.45;;;11.13;;
77705;SDS011;66874;45.274;5.880;2023-02-28T18:07:40;23.92;;;13.27;;
77705;SDS011;66874;45.274;5.880;2023-02-28T18:10:07;23.35;;;12.23;;
77705;SDS011;66874;45.274;5.880;2023-02-28T18:12:38;18.55;;;10.82;;
77705;SDS011;66874;45.274;5.880;2023-02-28T18:15:03;25.75;;;11.35;;
77705;SDS011;66874;45.274;5.880;2023-02-28T18:17:29;21.15;;;11.65;;
77705;SDS011;66874;45.274;5.880;2023-02-28T18:19:54;21.30;;;12.27;;
77705;SDS011;66874;45.274;5.880;2023-02-28T18:22:20;21.80;;;12.13;;
77705;SDS011;66874;45.274;5.880;2023-02-28T18:24:46;21.50;;;12.43;;
77705;SDS011;66874;45.274;5.880;2023-02-28T18:27:11;23.33;;;11.93;;
77705;SDS011;66874;45.274;5.880;2023-02-28T18:29:37;20.73;;;11.65;;
77705;SDS011;66874;45.274;5.880;2023-02-28T18:32:02;22.58;;;12.57;;
77705;SDS011;66874;45.274;5.880;2023-02-28T18:34:29;26.13;;;13.70;;
77705;SDS011;66874;45.274;5.880;2023-02-28T18:36:55;26.10;;;14.07;;
77705;SDS011;66874;45.274;5.880;2023-02-28T18:39:21;26.02;;;13.48;;
77705;SDS011;66874;45.274;5.880;2023-02-28T18:41:47;29.70;;;15.82;;
77705;SDS011;66874;45.274;5.880;2023-02-28T18:44:12;32.13;;;18.33;;
77705;SDS011;66874;45.274;5.880;2023-02-28T18:46:38;27.75;;;15.60;;
77705;SDS011;66874;45.274;5.880;2023-02-28T18:49:04;30.33;;;16.92;;
77705;SDS011;66874;45.274;5.880;2023-02-28T18:51:30;30.00;;;16.27;;
77705;SDS011;66874;45.274;5.880;2023-02-28T18:53:55;32.70;;;16.65;;
77705;SDS011;66874;45.274;5.880;2023-02-28T18:56:21;29.55;;;16.75;;
77705;SDS011;66874;45.274;5.880;2023-02-28T18:58:50;32.13;;;16.90;;
77705;SDS011;66874;45.274;5.880;2023-02-28T19:01:20;28.73;;;16.17;;
77705;SDS011;66874;45.274;5.880;2023-02-28T19:03:53;34.53;;;17.45;;
77705;SDS011;66874;45.274;5.880;2023-02-28T19:06:19;34.60;;;18.65;;
77705;SDS011;66874;45.274;5.880;2023-02-28T19:08:44;35.70;;;17.00;;
77705;SDS011;66874;45.274;5.880;2023-02-28T19:11:11;38.03;;;17.83;;
77705;SDS011;66874;45.274;5.880;2023-02-28T19:13:39;25.63;;;13.50;;
77705;SDS011;66874;45.274;5.880;2023-02-28T19:16:06;28.13;;;15.27;;
77705;SDS011;66874;45.274;5.880;2023-02-28T19:18:32;27.70;;;15.23;;
77705;SDS011;66874;45.274;5.880;2023-02-28T19:20:59;26.52;;;14.18;;
77705;SDS011;66874;45.274;5.880;2023-02-28T19:23:24;29.17;;;16.00;;
77705;SDS011;66874;45.274;5.880;2023-02-28T19:25:51;36.87;;;15.83;;
77705;SDS011;66874;45.274;5.880;2023-02-28T19:28:16;26.38;;;13.68;;
77705;SDS011;66874;45.274;5.880;2023-02-28T19:30:45;23.27;;;14.07;;
77705;SDS011;66874;45.274;5.880;2023-02-28T19:33:17;24.08;;;13.55;;
77705;SDS011;66874;45.274;5.880;2023-02-28T19:35:42;29.48;;;15.52;;
77705;SDS011;66874;45.274;5.880;2023-02-28T19:38:08;25.60;;;14.75;;
77705;SDS011;66874;45.274;5.880;2023-02-28T19:40:34;25.65;;;14.35;;
77705;SDS011;66874;45.274;5.880;2023-02-28T19:42:59;26.13;;;13.57;;
77705;SDS011;66874;45.274;5.880;2023-02-28T19:45:25;25.85;;;14.20;;
77705;SDS011;66874;45.274;5.880;2023-02-28T19:47:50;29.02;;;16.10;;
77705;SDS011;66874;45.274;5.880;2023-02-28T19:50:15;31.52;;;17.17;;
77705;SDS011;66874;45.274;5.880;2023-02-28T19:52:41;32.47;;;16.20;;
77705;SDS011;66874;45.274;5.880;2023-02-28T19:55:07;34.17;;;16.27;;
77705;SDS011;66874;45.274;5.880;2023-02-28T19:57:33;29.33;;;15.93;;
77705;SDS011;66874;45.274;5.880;2023-02-28T19:59:59;29.23;;;16.17;;
77705;SDS011;66874;45.274;5.880;2023-02-28T20:02:28;31.02;;;16.95;;
77705;SDS011;66874;45.274;5.880;2023-02-28T20:04:59;30.58;;;15.85;;
77705;SDS011;66874;45.274;5.880;2023-02-28T20:07:25;26.95;;;14.27;;
77705;SDS011;66874;45.274;5.880;2023-02-28T20:09:50;28.13;;;15.32;;
77705;SDS011;66874;45.274;5.880;2023-02-28T20:12:16;29.30;;;15.73;;
77705;SDS011;66874;45.274;5.880;2023-02-28T20:14:46;31.60;;;16.58;;
77705;SDS011;66874;45.274;5.880;2023-02-28T20:17:12;29.17;;;15.82;;
77705;SDS011;66874;45.274;5.880;2023-02-28T20:19:38;33.67;;;16.52;;
77705;SDS011;66874;45.274;5.880;2023-02-28T20:22:03;28.15;;;15.15;;
77705;SDS011;66874;45.274;5.880;2023-02-28T20:24:29;27.98;;;16.73;;
77705;SDS011;66874;45.274;5.880;2023-02-28T20:26:55;36.15;;;17.73;;
77705;SDS011;66874;45.274;5.880;2023-02-28T20:29:21;33.08;;;16.98;;
77705;SDS011;66874;45.274;5.880;2023-02-28T20:31:47;28.70;;;16.35;;
77705;SDS011;66874;45.274;5.880;2023-02-28T20:34:13;30.33;;;15.18;;
77705;SDS011;66874;45.274;5.880;2023-02-28T20:36:38;27.48;;;16.08;;
77705;SDS011;66874;45.274;5.880;2023-02-28T20:39:03;26.05;;;14.25;;
77705;SDS011;66874;45.274;5.880;2023-02-28T20:41:29;29.30;;;15.73;;
77705;SDS011;66874;45.274;5.880;2023-02-28T20:43:55;30.13;;;16.55;;
77705;SDS011;66874;45.274;5.880;2023-02-28T20:46:27;32.58;;;17.95;;
77705;SDS011;66874;45.274;5.880;2023-02-28T20:48:53;37.20;;;19.70;;
77705;SDS011;66874;45.274;5.880;2023-02-28T20:51:19;43.30;;;20.00;;
77705;SDS011;66874;45.274;5.880;2023-02-28T20:53:45;35.30;;;19.15;;
77705;SDS011;66874;45.274;5.880;2023-02-28T20:56:15;40.58;;;18.77;;
77705;SDS011;66874;45.274;5.880;2023-02-28T20:58:43;38.63;;;17.92;;
77705;SDS011;66874;45.274;5.880;2023-02-28T21:01:12;34.03;;;17.45;;
77705;SDS011;66874;45.274;5.880;2023-02-28T21:03:46;36.17;;;18.83;;
77705;SDS011;66874;45.274;5.880;2023-02-28T21:06:14;33.83;;;16.25;;
77705;SDS011;66874;45.274;5.880;2023-02-28T21:08:40;27.83;;;15.15;;
77705;SDS011;66874;45.274;5.880;2023-02-28T21:11:11;28.30;;;15.25;;
77705;SDS011;66874;45.274;5.880;2023-02-28T21:13:39;28.65;;;16.92;;
77705;SDS011;66874;45.274;5.880;2023-02-28T21:16:06;31.17;;;14.87;;
77705;SDS011;66874;45.274;5.880;2023-02-28T21:18:33;27.88;;;16.08;;
77705;SDS011;66874;45.274;5.880;2023-02-28T21:21:00;30.47;;;17.23;;
77705;SDS011;66874;45.274;5.880;2023-02-28T21:23:30;32.10;;;17.35;;
77705;SDS011;66874;45.274;5.880;2023-02-28T21:26:03;39.22;;;18.38;;
77705;SDS011;66874;45.274;5.880;2023-02-28T21:28:30;33.28;;;16.45;;
77705;SDS011;66874;45.274;5.880;2023-02-28T21:31:02;30.75;;;17.52;;
77705;SDS011;66874;45.274;5.880;2023-02-28T21:33:30;23.85;;;14.30;;
77705;SDS011;66874;45.274;5.880;2023-02-28T21:36:02;31.20;;;16.63;;
77705;SDS011;66874;45.274;5.880;2023-02-28T21:38:30;36.92;;;19.23;;
77705;SDS011;66874;45.274;5.880;2023-02-28T21:41:02;41.95;;;18.75;;
77705;SDS011;66874;45.274;5.880;2023-02-28T21:43:48;34.33;;;17.88;;
77705;SDS011;66874;45.274;5.880;2023-02-28T21:46:15;32.47;;;16.83;;
77705;SDS011;66874;45.274;5.880;2023-02-28T21:48:43;32.20;;;15.68;;
77705;SDS011;66874;45.274;5.880;2023-02-28T21:51:12;34.67;;;17.13;;
77705;SDS011;66874;45.274;5.880;2023-02-28T21:53:46;32.28;;;17.35;;
77705;SDS011;66874;45.274;5.880;2023-02-28T21:56:18;35.63;;;18.88;;
77705;SDS011;66874;45.274;5.880;2023-02-28T21:58:46;36.10;;;19.58;;
77705;SDS011;66874;45.274;5.880;2023-02-28T22:01:21;45.40;;;21.67;;
77705;SDS011;66874;45.274;5.880;2023-02-28T22:03:47;38.42;;;20.38;;
77705;SDS011;66874;45.274;5.880;2023-02-28T22:06:14;45.53;;;21.10;;
77705;SDS011;66874;45.274;5.880;2023-02-28T22:08:41;40.47;;;21.83;;
77705;SDS011;66874;45.274;5.880;2023-02-28T22:11:09;40.97;;;20.77;;
77705;SDS011;66874;45.274;5.880;2023-02-28T22:13:35;39.63;;;20.17;;
77705;SDS011;66874;45.274;5.880;2023-02-28T22:16:03;39.72;;;21.50;;
77705;SDS011;66874;45.274;5.880;2023-02-28T22:18:30;39.10;;;20.65;;
77705;SDS011;66874;45.274;5.880;2023-02-28T22:20:56;35.20;;;20.02;;
77705;SDS011;66874;45.274;5.880;2023-02-28T22:23:21;36.10;;;18.92;;
77705;SDS011;66874;45.274;5.880;2023-02-28T22:25:47;32.90;;;16.58;;
77705;SDS011;66874;45.274;5.880;2023-02-28T22:28:12;25.88;;;14.05;;
77705;SDS011;66874;45.274;5.880;2023-02-28T22:30:38;25.50;;;14.25;;